Masury, Ohio
Current Conditions -  °F | °C
As of 3:51 PM on Thursday 18 Dec 2014 (Local Time) from KYNG Reporting Station
Light Snow Light Snow  
Wind Chill: 20°   Ceiling: 1700
Heat Index: 29°   Visibility: 5mi
Dew Point: 23°   Wind: 9mph
Humidity: 78%   Direction: 250°WSW
Pressure: 30.14"   Gusts: NA
Location:  41.21°N, 80.54°W
Report Text: KYNG 182051Z 25008KT 5SM -SN OVC017 M02/M05 A3014 RMK AO2 SLP219 P0000 60000 T10171050 55001
Loading
Personal Weather Stations






























Interactive Weather Map New forecast layout! Learn more

10-Day Weather Forecast

Advertisements
Track Severe Weather on mobile